createdAt,value
2023-02-01T00:02:21.070Z,66.52
2023-02-01T00:06:03.979Z,65.96
2023-02-01T00:09:48.365Z,65.90
2023-02-01T00:13:31.820Z,65.59
2023-02-01T00:17:14.688Z,65.83
2023-02-01T00:20:57.365Z,65.71
2023-02-01T00:24:40.098Z,65.40
2023-02-01T00:28:24.255Z,65.49
2023-02-01T00:32:07.037Z,65.50
2023-02-01T00:35:49.815Z,65.95
2023-02-01T00:39:32.537Z,66.58
2023-02-01T00:43:15.228Z,67.11
2023-02-01T00:46:59.319Z,67.89
2023-02-01T00:50:43.793Z,69.55
2023-02-01T00:54:26.638Z,70.01
2023-02-01T00:58:10.440Z,71.57
2023-02-01T01:01:53.185Z,73.54
2023-02-01T01:05:37.247Z,73.29
2023-02-01T01:09:19.929Z,74.17
2023-02-01T01:13:02.642Z,73.95
2023-02-01T01:16:45.389Z,73.43
2023-02-01T01:20:28.154Z,73.95
2023-02-01T01:24:12.307Z,74.05
2023-02-01T01:27:55.117Z,74.06
2023-02-01T01:31:37.957Z,74.32
2023-02-01T01:35:20.775Z,75.57
2023-02-01T01:39:03.577Z,76.05
2023-02-01T01:42:47.831Z,77.14
2023-02-01T01:46:32.155Z,78.12
2023-02-01T01:50:19.322Z,78.51
2023-02-01T01:54:04.625Z,79.85
2023-02-01T01:57:53.888Z,80.45
2023-02-01T02:01:36.739Z,80.34
2023-02-01T02:05:20.198Z,81.01
2023-02-01T02:09:04.755Z,81.03
2023-02-01T02:12:51.133Z,81.46
2023-02-01T02:16:43.879Z,81.55
2023-02-01T02:20:55.491Z,81.23
2023-02-01T02:25:03.058Z,80.99
2023-02-01T02:29:17.758Z,81.44
2023-02-01T02:33:26.745Z,81.70
2023-02-01T02:37:18.010Z,81.54
2023-02-01T02:41:07.568Z,81.53
2023-02-01T02:45:10.093Z,81.81
2023-02-01T02:48:57.137Z,81.39
2023-02-01T02:52:58.912Z,80.66
2023-02-01T02:56:59.938Z,80.50
2023-02-01T03:01:01.963Z,79.93
2023-02-01T03:04:46.057Z,79.34
2023-02-01T03:08:30.535Z,79.16
2023-02-01T03:12:32.551Z,79.27
2023-02-01T03:16:17.773Z,79.22
2023-02-01T03:20:03.496Z,79.03
2023-02-01T03:23:46.710Z,78.17
2023-02-01T03:27:33.410Z,77.94
2023-02-01T03:31:16.106Z,77.65
2023-02-01T03:34:58.842Z,77.04
2023-02-01T03:38:49.005Z,76.93
2023-02-01T03:42:35.850Z,76.65
2023-02-01T03:46:23.350Z,76.40
2023-02-01T03:50:08.650Z,76.42
2023-02-01T03:53:54.368Z,76.05
2023-02-01T03:57:40.609Z,75.60
2023-02-01T04:01:23.395Z,75.79
2023-02-01T04:05:06.909Z,75.70
2023-02-01T04:08:49.591Z,75.40
2023-02-01T04:12:33.782Z,75.45
2023-02-01T04:16:16.597Z,74.95
2023-02-01T04:19:59.239Z,74.87
2023-02-01T04:23:41.879Z,74.79
2023-02-01T04:31:07.791Z,74.39
2023-02-01T04:34:50.481Z,74.55
2023-02-01T04:38:35.876Z,74.32
2023-02-01T04:42:18.536Z,73.96
2023-02-01T04:46:03.241Z,73.72
2023-02-01T04:49:47.263Z,73.71
2023-02-01T04:53:30.744Z,73.97
2023-02-01T04:57:14.476Z,73.47
2023-02-01T05:00:57.178Z,73.22
2023-02-01T05:04:39.995Z,73.24
2023-02-01T05:08:27.930Z,73.24
2023-02-01T05:12:29.322Z,72.81
2023-02-01T05:16:12.105Z,72.90
2023-02-01T05:19:54.896Z,73.16
2023-02-01T05:23:59.399Z,73.07
2023-02-01T05:27:42.127Z,72.94
2023-02-01T05:31:24.866Z,72.70
2023-02-01T05:35:08.707Z,72.70
2023-02-01T05:38:52.786Z,72.59
2023-02-01T05:42:38.609Z,72.33
2023-02-01T05:46:21.397Z,72.33
2023-02-01T05:50:05.073Z,72.56
2023-02-01T05:53:47.753Z,71.97
2023-02-01T05:57:32.036Z,72.34
2023-02-01T06:01:14.701Z,72.59
2023-02-01T06:05:00.128Z,72.50
2023-02-01T06:08:42.821Z,72.49
2023-02-01T06:12:25.443Z,72.57
2023-02-01T06:16:09.773Z,72.61
2023-02-01T06:19:53.293Z,72.82
2023-02-01T06:23:36.871Z,72.30
2023-02-01T06:27:19.562Z,72.67
2023-02-01T06:31:07.619Z,72.22
2023-02-01T06:34:53.431Z,72.54
2023-02-01T06:38:37.078Z,72.36
2023-02-01T06:42:19.751Z,72.33
2023-02-01T06:46:03.276Z,72.34
2023-02-01T06:49:45.929Z,72.61
2023-02-01T06:53:30.294Z,72.20
2023-02-01T06:57:13.848Z,72.34
2023-02-01T07:00:56.607Z,71.98
2023-02-01T07:04:39.363Z,72.63
2023-02-01T07:08:22.001Z,72.20
2023-02-01T07:12:06.736Z,72.10
2023-02-01T07:15:49.490Z,72.07
2023-02-01T07:19:32.325Z,72.41
2023-02-01T07:23:15.069Z,71.88
2023-02-01T07:26:57.773Z,71.79
2023-02-01T07:30:42.712Z,71.56
2023-02-01T07:34:25.626Z,71.51
2023-02-01T07:38:11.253Z,71.34
2023-02-01T07:41:53.931Z,71.20
2023-02-01T07:45:37.299Z,70.89
2023-02-01T07:49:21.410Z,70.65
2023-02-01T07:53:04.122Z,70.39
2023-02-01T07:56:46.828Z,70.01
2023-02-01T08:00:47.079Z,69.78
2023-02-01T08:04:31.855Z,69.11
2023-02-01T08:08:14.553Z,68.93
2023-02-01T08:11:57.229Z,68.28
2023-02-01T08:15:40.309Z,68.09
2023-02-01T08:19:23.028Z,67.71
2023-02-01T08:23:10.016Z,67.41
2023-02-01T08:26:52.826Z,67.11
2023-02-01T08:30:35.708Z,66.36
2023-02-01T08:34:18.529Z,66.44
2023-02-01T08:38:01.226Z,65.98
2023-02-01T08:42:05.263Z,65.90
2023-02-01T08:45:47.972Z,65.61
2023-02-01T08:49:30.897Z,65.00
2023-02-01T08:53:14.998Z,64.78
2023-02-01T08:56:59.314Z,64.35
2023-02-01T09:00:42.223Z,64.58
2023-02-01T09:04:24.999Z,64.38
2023-02-01T09:08:07.923Z,64.53
2023-02-01T09:11:51.266Z,63.70
2023-02-01T09:15:35.575Z,63.75
2023-02-01T09:19:27.115Z,64.12
2023-02-01T09:23:10.029Z,64.06
2023-02-01T09:26:53.689Z,63.97
2023-02-01T09:30:38.485Z,63.87
2023-02-01T09:34:21.305Z,64.24
2023-02-01T09:38:06.768Z,63.85
2023-02-01T09:41:56.287Z,63.90
2023-02-01T09:45:48.053Z,64.05
2023-02-01T09:49:33.132Z,64.29
2023-02-01T09:53:24.038Z,64.69
2023-02-01T09:57:10.985Z,64.37
2023-02-01T10:00:56.444Z,64.11
2023-02-01T10:04:39.216Z,64.02
2023-02-01T10:08:28.204Z,64.09
2023-02-01T10:12:30.224Z,65.01
2023-02-01T10:16:26.632Z,64.60
2023-02-01T10:20:14.569Z,64.75
2023-02-01T10:24:17.429Z,64.63
2023-02-01T10:28:02.841Z,64.31
2023-02-01T10:31:47.487Z,64.57
2023-02-01T10:35:33.582Z,65.04
2023-02-01T10:39:16.409Z,64.95
2023-02-01T10:43:01.128Z,64.95
2023-02-01T10:46:44.028Z,64.97
2023-02-01T10:50:40.175Z,65.07
2023-02-01T10:54:24.409Z,65.70
2023-02-01T10:58:09.268Z,65.99
2023-02-01T11:01:59.752Z,66.27
2023-02-01T11:05:47.172Z,67.84
2023-02-01T11:09:29.940Z,66.35
2023-02-01T11:13:17.165Z,66.64
2023-02-01T11:17:01.946Z,66.28
2023-02-01T11:20:44.931Z,66.04
2023-02-01T11:24:31.301Z,65.89
2023-02-01T11:28:14.460Z,65.46
2023-02-01T11:31:58.740Z,66.00
2023-02-01T11:35:41.985Z,65.72
2023-02-01T11:39:27.764Z,65.71
2023-02-01T11:43:16.275Z,65.80
2023-02-01T11:47:20.439Z,65.74
2023-02-01T11:51:15.229Z,66.02
2023-02-01T11:55:09.178Z,66.29
2023-02-01T11:59:14.437Z,65.84
2023-02-01T12:03:25.324Z,66.38
2023-02-01T12:07:13.789Z,66.70
2023-02-01T12:11:33.289Z,66.29
2023-02-01T12:15:29.886Z,66.59
2023-02-01T12:19:22.942Z,66.54
2023-02-01T12:23:16.435Z,66.31
2023-02-01T12:27:12.676Z,66.91
2023-02-01T12:31:14.228Z,66.05
2023-02-01T12:35:15.613Z,66.34
2023-02-01T12:39:05.101Z,66.13
2023-02-01T12:42:53.507Z,66.07
2023-02-01T12:46:42.392Z,66.47
2023-02-01T12:50:29.677Z,65.79
2023-02-01T12:54:15.834Z,65.09
2023-02-01T12:58:05.813Z,64.98
2023-02-01T13:01:53.329Z,64.30
2023-02-01T13:05:42.315Z,63.96
2023-02-01T13:09:28.513Z,64.27
2023-02-01T13:13:16.834Z,64.45
2023-02-01T13:17:03.058Z,64.38
2023-02-01T13:20:51.546Z,64.91
2023-02-01T13:24:39.171Z,65.96
2023-02-01T13:28:26.795Z,66.01
2023-02-01T13:33:51.324Z,66.58
2023-02-01T13:36:58.493Z,66.68
2023-02-01T13:40:43.417Z,66.87
2023-02-01T13:44:30.790Z,66.77
2023-02-01T13:48:23.136Z,66.73
2023-02-01T13:52:06.176Z,67.01
2023-02-01T13:55:52.564Z,67.06
2023-02-01T13:59:50.681Z,67.34
2023-02-01T14:03:47.105Z,67.25
2023-02-01T14:07:29.816Z,66.91
2023-02-01T14:11:35.816Z,67.47
2023-02-01T14:15:25.114Z,66.36
2023-02-01T14:19:21.623Z,66.89
2023-02-01T14:23:04.744Z,66.88
2023-02-01T14:26:49.075Z,66.37
2023-02-01T14:30:32.006Z,66.62
2023-02-01T14:34:19.333Z,66.14
2023-02-01T14:38:03.872Z,65.91
2023-02-01T14:41:48.424Z,65.74
2023-02-01T14:45:52.344Z,65.60
2023-02-01T14:49:39.813Z,65.67
2023-02-01T14:53:25.686Z,65.37
2023-02-01T14:57:15.435Z,65.62
2023-02-01T15:01:00.151Z,65.78
2023-02-01T15:04:45.022Z,66.14
2023-02-01T15:08:30.836Z,66.09
2023-02-01T15:12:21.340Z,66.16
2023-02-01T15:16:12.497Z,66.52
2023-02-01T15:19:57.591Z,67.06
2023-02-01T15:23:40.326Z,67.04
2023-02-01T15:27:23.164Z,67.20
2023-02-01T15:31:07.365Z,68.21
2023-02-01T15:34:51.716Z,68.82
2023-02-01T15:38:41.300Z,70.21
2023-02-01T15:42:24.025Z,71.29
2023-02-01T15:46:11.043Z,71.71
2023-02-01T15:49:55.404Z,72.25
2023-02-01T15:53:39.506Z,71.82
2023-02-01T15:57:23.924Z,71.72
2023-02-01T16:01:07.895Z,71.61
2023-02-01T16:04:51.903Z,71.53
2023-02-01T16:08:35.651Z,70.81
2023-02-01T16:12:30.056Z,70.73
2023-02-01T16:16:14.973Z,69.28
2023-02-01T16:19:58.203Z,69.04
2023-02-01T16:23:40.896Z,68.58
2023-02-01T16:27:24.908Z,68.07
2023-02-01T16:31:09.412Z,68.28
2023-02-01T16:34:54.304Z,67.75
2023-02-01T16:38:37.008Z,67.53
2023-02-01T16:42:19.843Z,67.81
2023-02-01T16:46:04.632Z,67.22
2023-02-01T16:49:47.457Z,67.12
2023-02-01T16:53:33.055Z,66.86
2023-02-01T16:57:20.761Z,66.49
2023-02-01T17:01:04.915Z,65.75
2023-02-01T17:04:48.842Z,65.34
2023-02-01T17:08:35.289Z,64.82
2023-02-01T17:12:24.040Z,64.17
2023-02-01T17:16:14.870Z,64.26
2023-02-01T17:19:57.585Z,63.67
2023-02-01T17:23:41.072Z,63.53
2023-02-01T17:27:23.831Z,63.19
2023-02-01T17:31:07.971Z,62.88
2023-02-01T17:34:50.822Z,63.08
2023-02-01T17:38:34.420Z,63.10
2023-02-01T17:42:17.149Z,63.06
2023-02-01T17:46:01.475Z,62.94
2023-02-01T17:49:45.602Z,62.48
2023-02-01T17:53:29.447Z,62.35
2023-02-01T17:57:13.870Z,62.12
2023-02-01T18:00:56.566Z,62.17
2023-02-01T18:04:39.237Z,61.60
2023-02-01T18:08:25.854Z,61.31
2023-02-01T18:12:16.223Z,61.24
2023-02-01T18:15:59.937Z,60.97
2023-02-01T18:19:42.904Z,61.25
2023-02-01T18:23:26.964Z,60.95
2023-02-01T18:27:09.951Z,60.69
2023-02-01T18:30:52.765Z,60.85
2023-02-01T18:34:35.488Z,60.65
2023-02-01T18:38:18.336Z,59.87
2023-02-01T18:42:02.373Z,60.00
2023-02-01T18:45:46.195Z,60.10
2023-02-01T18:49:28.885Z,60.07
2023-02-01T18:53:14.260Z,60.20
2023-02-01T18:56:56.922Z,60.30
2023-02-01T19:00:40.994Z,60.17
2023-02-01T19:04:26.118Z,60.16
2023-02-01T19:08:11.491Z,60.40
2023-02-01T19:11:54.483Z,60.57
2023-02-01T19:15:40.319Z,60.50
2023-02-01T19:19:24.514Z,60.69
2023-02-01T19:23:07.197Z,60.58
2023-02-01T19:26:51.387Z,60.80
2023-02-01T19:30:34.240Z,60.72
2023-02-01T19:34:16.994Z,61.08
2023-02-01T19:38:01.274Z,60.74
2023-02-01T19:41:43.894Z,61.17
2023-02-01T19:45:26.767Z,61.25
2023-02-01T19:49:12.182Z,61.42
2023-02-01T19:52:54.877Z,61.34
2023-02-01T19:56:39.334Z,61.12
2023-02-01T20:00:22.496Z,60.81
2023-02-01T20:04:06.440Z,61.04
2023-02-01T20:07:49.162Z,61.04
2023-02-01T20:11:32.000Z,60.79
2023-02-01T20:15:16.269Z,60.76
2023-02-01T20:18:59.003Z,61.02
2023-02-01T20:22:41.779Z,60.90
2023-02-01T20:26:25.907Z,60.61
2023-02-01T20:30:10.056Z,60.83
2023-02-01T20:33:54.182Z,60.45
2023-02-01T20:37:37.739Z,60.47
2023-02-01T20:41:20.675Z,60.43
2023-02-01T20:45:04.007Z,60.64
2023-02-01T20:48:48.234Z,60.45
2023-02-01T20:52:32.218Z,60.62
2023-02-01T20:56:15.745Z,60.87
2023-02-01T20:59:59.637Z,60.77
2023-02-01T21:03:43.144Z,60.91
2023-02-01T21:07:25.854Z,61.26
2023-02-01T21:11:11.343Z,61.40
2023-02-01T21:14:55.226Z,61.70
2023-02-01T21:18:38.533Z,61.97
2023-02-01T21:22:21.214Z,61.99
2023-02-01T21:26:04.607Z,61.94
2023-02-01T21:29:49.353Z,62.40
2023-02-01T21:33:32.142Z,62.81
2023-02-01T21:37:15.141Z,63.16
2023-02-01T21:41:16.346Z,63.57
2023-02-01T21:45:02.291Z,63.72
2023-02-01T21:49:04.150Z,63.82
2023-02-01T21:52:48.031Z,63.43
2023-02-01T21:56:31.185Z,64.06
2023-02-01T22:00:17.357Z,64.01
2023-02-01T22:04:01.283Z,63.10
2023-02-01T22:07:44.422Z,64.01
2023-02-01T22:11:27.246Z,63.81
2023-02-01T22:15:10.704Z,63.66
2023-02-01T22:18:55.478Z,64.27
2023-02-01T22:22:38.113Z,64.11
2023-02-01T22:26:21.285Z,63.77
2023-02-01T22:30:04.030Z,64.07
2023-02-01T22:33:47.108Z,64.21
2023-02-01T22:37:31.121Z,64.15
2023-02-01T22:41:14.063Z,64.35
2023-02-01T22:44:58.395Z,64.12
2023-02-01T22:48:42.359Z,64.43
2023-02-01T22:52:25.036Z,65.05
2023-02-01T22:56:09.150Z,65.33
2023-02-01T22:59:51.820Z,66.13
2023-02-01T23:03:35.175Z,65.91
2023-02-01T23:07:17.937Z,65.87
2023-02-01T23:11:01.589Z,66.03
2023-02-01T23:14:59.563Z,66.71
2023-02-01T23:18:42.605Z,66.30
2023-02-01T23:22:25.314Z,66.20
2023-02-01T23:26:08.327Z,65.92
2023-02-01T23:29:52.309Z,65.93
2023-02-01T23:33:34.950Z,66.00
2023-02-01T23:37:17.763Z,65.64
2023-02-01T23:41:01.657Z,65.58
2023-02-01T23:44:44.337Z,65.21
2023-02-01T23:48:30.478Z,64.94
2023-02-01T23:52:13.232Z,64.58
2023-02-01T23:56:01.897Z,64.43
2023-02-01T23:59:44.846Z,64.72
